Toyomasa Maru — JJ3927 — position and weather

sailwx.info

Track history (hours):
 
Tides and Currents Weather Stations Pressure Air Temp Water Temp Dewpoint Dewpoint Depression Visibility Wind Speed Wind Dir Waves Ship Positions

Toyomasa Maru

Last reported at 2017-Mar-30 02:28 UTC. Time now 2017-Mar-30 02:55 UTC.
Position N 34°39' E 135°08'.

Length 101 m; draft 6.8 m.

Type: Tanker. MMSI: 431300401.

Date/timePositionNaut miles runAvg speedWind from/ knotsBaromVisibWave heightAir tempDewpointWater temp
2017-Mar-30 02:28N 34°39' E 135°08'0 0.0
2017-Mar-30 01:22N 34°39' E 135°08'0 0.0
2017-Mar-30 00:22N 34°39' E 135°08'0 0.3
2017-Mar-29 23:33N 34°38' E 135°08'5 4.7
2017-Mar-29 22:33N 34°34' E 135°06'1412.7
2017-Mar-29 21:28N 34°21' E 135°01'1111.5
2017-Mar-29 20:33N 34°10' E 134°59'  
2017-Mar-26 11:26N 35°04' E 139°40'1112.9
2017-Mar-26 10:33N 35°15' E 139°46'1111.2
2017-Mar-26 09:34N 35°26' E 139°46'1413.3
2017-Mar-26 08:32N 35°33' E 139°60'0 0.0
2017-Mar-26 01:17N 35°34' E 139°59'911.7
2017-Mar-26 00:33N 35°28' E 139°51'1111.0
2017-Mar-25 23:33N 35°19' E 139°44'15 0.4
2017-Mar-24 05:21N 35°04' E 139°40'1113.2
2017-Mar-24 04:32N 35°14' E 139°46'1111.7
2017-Mar-24 03:33N 35°25' E 139°44'8 7.6
2017-Mar-24 02:33N 35°32' E 139°48'0 0.0
2017-Mar-24 01:32N 35°32' E 139°48'0 0.0
2017-Mar-24 00:29N 35°32' E 139°48'0 0.0
2017-Mar-23 23:32N 35°32' E 139°48'0 0.1
2017-Mar-23 22:32N 35°32' E 139°48'3 2.6
2017-Mar-23 21:34N 35°30' E 139°51'0 0.0
2017-Mar-23 20:08N 35°30' E 139°51'0 0.0
2017-Mar-23 19:32N 35°30' E 139°51'0 0.0
2017-Mar-23 18:32N 35°30' E 139°51'0 0.0
2017-Mar-23 17:32N 35°30' E 139°51'0 0.0
2017-Mar-23 16:32N 35°30' E 139°51'0 0.0
2017-Mar-23 15:23N 35°30' E 139°51'0 0.0
2017-Mar-23 14:32N 35°30' E 139°51'0 0.0
2017-Mar-23 13:29N 35°30' E 139°51'0 0.0
2017-Mar-23 12:32N 35°30' E 139°51'0 0.0
2017-Mar-23 11:32N 35°30' E 139°51'0 0.0
2017-Mar-23 10:32N 35°30' E 139°51'0 0.0
2017-Mar-23 09:32N 35°30' E 139°51'0 0.0
2017-Mar-23 08:32N 35°30' E 139°51'0 0.0
2017-Mar-23 07:32N 35°30' E 139°51'0 0.0
2017-Mar-23 06:33N 35°30' E 139°51'8 8.4
2017-Mar-23 05:34N 35°29' E 140°01'0 0.0
2017-Mar-23 00:06N 35°29' E 140°01'3 5.7
2017-Mar-22 23:33N 35°31' E 139°58'4 4.0
2017-Mar-22 22:33N 35°33' E 139°54'0 0.0
2017-Mar-22 21:28N 35°33' E 139°54'0 0.0
2017-Mar-22 20:28N 35°33' E 139°54'0 0.0
2017-Mar-22 19:31N 35°33' E 139°54'0 0.0
2017-Mar-22 18:25N 35°33' E 139°54'0 0.0
2017-Mar-22 17:22N 35°33' E 139°54'0 0.0
2017-Mar-22 16:31N 35°33' E 139°54'0 0.0
2017-Mar-22 15:31N 35°33' E 139°54'0 0.0
2017-Mar-22 14:31N 35°33' E 139°54'0 0.0
2017-Mar-22 13:31N 35°33' E 139°54'0 0.0
2017-Mar-22 12:31N 35°33' E 139°54'0 0.0
2017-Mar-22 11:31N 35°33' E 139°54'0 0.0
2017-Mar-22 10:31N 35°33' E 139°54'0 0.0
2017-Mar-22 09:31N 35°33' E 139°54'0 0.0
2017-Mar-22 08:28N 35°33' E 139°54'0 0.0
2017-Mar-22 07:31N 35°33' E 139°54'0 0.0
2017-Mar-22 06:25N 35°33' E 139°54'0 0.0
2017-Mar-22 05:31N 35°33' E 139°54'0 0.0
2017-Mar-22 04:33N 35°33' E 139°54'0 0.1
2017-Mar-22 03:33N 35°33' E 139°54'0 0.0
2017-Mar-22 02:33N 35°33' E 139°54'0 0.0
2017-Mar-22 01:33N 35°33' E 139°54'0 0.0
2017-Mar-22 00:33N 35°33' E 139°54'0 0.0
2017-Mar-21 23:33N 35°33' E 139°54'0 0.0
2017-Mar-21 22:33N 35°33' E 139°54'0 0.0
2017-Mar-21 21:32N 35°33' E 139°54'0 0.0
2017-Mar-21 20:33N 35°33' E 139°54'0 0.0
2017-Mar-21 19:33N 35°33' E 139°54'0 0.0
2017-Mar-21 18:33N 35°33' E 139°54'0 0.0
2017-Mar-21 17:33N 35°33' E 139°54'0 0.0
2017-Mar-21 16:33N 35°33' E 139°54'0 0.1
2017-Mar-21 15:33N 35°33' E 139°54'0 0.0
2017-Mar-21 14:34N 35°33' E 139°54'0 0.0
2017-Mar-21 13:33N 35°33' E 139°54'0 0.0
2017-Mar-21 12:33N 35°33' E 139°54'0 0.0
2017-Mar-21 11:32N 35°33' E 139°54'0 0.1
2017-Mar-21 10:23N 35°33' E 139°54'5 6.2
2017-Mar-21 09:33N 35°32' E 139°48'0 0.1
2017-Mar-21 08:33N 35°32' E 139°48'0 0.0
2017-Mar-21 07:32N 35°32' E 139°48'0 0.0
2017-Mar-21 06:32N 35°32' E 139°48'0 0.0
2017-Mar-21 05:32N 35°32' E 139°48'1 1.5
2017-Mar-21 04:33N 35°31' E 139°49'9 9.3
2017-Mar-21 03:33N 35°29' E 140°00'1 0.1
2017-Mar-20 22:03N 35°29' E 140°01'3 5.1
2017-Mar-20 21:33N 35°30' E 139°58'0 0.3
2017-Mar-20 20:31N 35°30' E 139°58'0 0.0
2017-Mar-20 19:25N 35°30' E 139°58'0 0.0
2017-Mar-20 18:31N 35°30' E 139°58'0 0.0
2017-Mar-20 17:28N 35°30' E 139°58'0 0.0
2017-Mar-20 16:28N 35°30' E 139°58'0 0.0
2017-Mar-20 15:16N 35°30' E 139°58'0 0.1
2017-Mar-20 14:28N 35°30' E 139°58'0 0.0
2017-Mar-20 13:31N 35°30' E 139°58'0 0.0
2017-Mar-20 12:28N 35°30' E 139°58'0 0.0
2017-Mar-20 11:31N 35°30' E 139°58'1 1.0
2017-Mar-20 10:33N 35°30' E 139°56'5 4.5
2017-Mar-20 09:32N 35°31' E 139°51'0 0.0
2017-Mar-20 08:32N 35°31' E 139°51'5 4.7
2017-Mar-20 07:33N 35°30' E 139°45'0 0.0
2017-Mar-20 06:33N 35°30' E 139°45'0 0.0
2017-Mar-20 05:32N 35°30' E 139°45'0 0.0
2017-Mar-20 04:32N 35°30' E 139°45'0 0.0
2017-Mar-20 03:29N 35°30' E 139°45'0 0.0
2017-Mar-20 02:32N 35°30' E 139°45'  
Track history (hours):
 
Tides and Currents Weather Stations Pressure Air Temp Water Temp Dewpoint Dewpoint Depression Visibility Wind Speed Wind Dir Waves Ship Positions

Toyomasa Maru

Last reported at 2017-Mar-30 02:28 UTC. Time now 2017-Mar-30 02:55 UTC.
Position N 34°39' E 135°08'.

Length 101 m; draft 6.8 m.

Type: Tanker. MMSI: 431300401.

Date/timePositionNaut miles runAvg speedWind from/ knotsBaromVisibWave heightAir tempDewpointWater temp
2017-Mar-30 02:28N 34°39' E 135°08'0 0.0
2017-Mar-30 01:22N 34°39' E 135°08'0 0.0
2017-Mar-30 00:22N 34°39' E 135°08'0 0.3
2017-Mar-29 23:33N 34°38' E 135°08'5 4.7
2017-Mar-29 22:33N 34°34' E 135°06'1412.7
2017-Mar-29 21:28N 34°21' E 135°01'1111.5
2017-Mar-29 20:33N 34°10' E 134°59'  
2017-Mar-26 11:26N 35°04' E 139°40'1112.9
2017-Mar-26 10:33N 35°15' E 139°46'1111.2
2017-Mar-26 09:34N 35°26' E 139°46'1413.3
2017-Mar-26 08:32N 35°33' E 139°60'0 0.0
2017-Mar-26 01:17N 35°34' E 139°59'911.7
2017-Mar-26 00:33N 35°28' E 139°51'1111.0
2017-Mar-25 23:33N 35°19' E 139°44'15 0.4
2017-Mar-24 05:21N 35°04' E 139°40'1113.2
2017-Mar-24 04:32N 35°14' E 139°46'1111.7
2017-Mar-24 03:33N 35°25' E 139°44'8 7.6
2017-Mar-24 02:33N 35°32' E 139°48'0 0.0
2017-Mar-24 01:32N 35°32' E 139°48'0 0.0
2017-Mar-24 00:29N 35°32' E 139°48'0 0.0
2017-Mar-23 23:32N 35°32' E 139°48'0 0.1
2017-Mar-23 22:32N 35°32' E 139°48'3 2.6
2017-Mar-23 21:34N 35°30' E 139°51'0 0.0
2017-Mar-23 20:08N 35°30' E 139°51'0 0.0
2017-Mar-23 19:32N 35°30' E 139°51'0 0.0
2017-Mar-23 18:32N 35°30' E 139°51'0 0.0
2017-Mar-23 17:32N 35°30' E 139°51'0 0.0
2017-Mar-23 16:32N 35°30' E 139°51'0 0.0
2017-Mar-23 15:23N 35°30' E 139°51'0 0.0
2017-Mar-23 14:32N 35°30' E 139°51'0 0.0
2017-Mar-23 13:29N 35°30' E 139°51'0 0.0
2017-Mar-23 12:32N 35°30' E 139°51'0 0.0
2017-Mar-23 11:32N 35°30' E 139°51'0 0.0
2017-Mar-23 10:32N 35°30' E 139°51'0 0.0
2017-Mar-23 09:32N 35°30' E 139°51'0 0.0
2017-Mar-23 08:32N 35°30' E 139°51'0 0.0
2017-Mar-23 07:32N 35°30' E 139°51'0 0.0
2017-Mar-23 06:33N 35°30' E 139°51'8 8.4
2017-Mar-23 05:34N 35°29' E 140°01'0 0.0
2017-Mar-23 00:06N 35°29' E 140°01'3 5.7
2017-Mar-22 23:33N 35°31' E 139°58'4 4.0
2017-Mar-22 22:33N 35°33' E 139°54'0 0.0
2017-Mar-22 21:28N 35°33' E 139°54'0 0.0
2017-Mar-22 20:28N 35°33' E 139°54'0 0.0
2017-Mar-22 19:31N 35°33' E 139°54'0 0.0
2017-Mar-22 18:25N 35°33' E 139°54'0 0.0
2017-Mar-22 17:22N 35°33' E 139°54'0 0.0
2017-Mar-22 16:31N 35°33' E 139°54'0 0.0
2017-Mar-22 15:31N 35°33' E 139°54'0 0.0
2017-Mar-22 14:31N 35°33' E 139°54'0 0.0
2017-Mar-22 13:31N 35°33' E 139°54'0 0.0
2017-Mar-22 12:31N 35°33' E 139°54'0 0.0
2017-Mar-22 11:31N 35°33' E 139°54'0 0.0
2017-Mar-22 10:31N 35°33' E 139°54'0 0.0
2017-Mar-22 09:31N 35°33' E 139°54'0 0.0
2017-Mar-22 08:28N 35°33' E 139°54'0 0.0
2017-Mar-22 07:31N 35°33' E 139°54'0 0.0
2017-Mar-22 06:25N 35°33' E 139°54'0 0.0
2017-Mar-22 05:31N 35°33' E 139°54'0 0.0
2017-Mar-22 04:33N 35°33' E 139°54'0 0.1
2017-Mar-22 03:33N 35°33' E 139°54'0 0.0
2017-Mar-22 02:33N 35°33' E 139°54'0 0.0
2017-Mar-22 01:33N 35°33' E 139°54'0 0.0
2017-Mar-22 00:33N 35°33' E 139°54'0 0.0
2017-Mar-21 23:33N 35°33' E 139°54'0 0.0
2017-Mar-21 22:33N 35°33' E 139°54'0 0.0
2017-Mar-21 21:32N 35°33' E 139°54'0 0.0
2017-Mar-21 20:33N 35°33' E 139°54'0 0.0
2017-Mar-21 19:33N 35°33' E 139°54'0 0.0
2017-Mar-21 18:33N 35°33' E 139°54'0 0.0
2017-Mar-21 17:33N 35°33' E 139°54'0 0.0
2017-Mar-21 16:33N 35°33' E 139°54'0 0.1
2017-Mar-21 15:33N 35°33' E 139°54'0 0.0
2017-Mar-21 14:34N 35°33' E 139°54'0 0.0
2017-Mar-21 13:33N 35°33' E 139°54'0 0.0
2017-Mar-21 12:33N 35°33' E 139°54'0 0.0
2017-Mar-21 11:32N 35°33' E 139°54'0 0.1
2017-Mar-21 10:23N 35°33' E 139°54'5 6.2
2017-Mar-21 09:33N 35°32' E 139°48'0 0.1
2017-Mar-21 08:33N 35°32' E 139°48'0 0.0
2017-Mar-21 07:32N 35°32' E 139°48'0 0.0
2017-Mar-21 06:32N 35°32' E 139°48'0 0.0
2017-Mar-21 05:32N 35°32' E 139°48'1 1.5
2017-Mar-21 04:33N 35°31' E 139°49'9 9.3
2017-Mar-21 03:33N 35°29' E 140°00'1 0.1
2017-Mar-20 22:03N 35°29' E 140°01'3 5.1
2017-Mar-20 21:33N 35°30' E 139°58'0 0.3
2017-Mar-20 20:31N 35°30' E 139°58'0 0.0
2017-Mar-20 19:25N 35°30' E 139°58'0 0.0
2017-Mar-20 18:31N 35°30' E 139°58'0 0.0
2017-Mar-20 17:28N 35°30' E 139°58'0 0.0
2017-Mar-20 16:28N 35°30' E 139°58'0 0.0
2017-Mar-20 15:16N 35°30' E 139°58'0 0.1
2017-Mar-20 14:28N 35°30' E 139°58'0 0.0
2017-Mar-20 13:31N 35°30' E 139°58'0 0.0
2017-Mar-20 12:28N 35°30' E 139°58'0 0.0
2017-Mar-20 11:31N 35°30' E 139°58'1 1.0
2017-Mar-20 10:33N 35°30' E 139°56'5 4.5
2017-Mar-20 09:32N 35°31' E 139°51'0 0.0
2017-Mar-20 08:32N 35°31' E 139°51'5 4.7
2017-Mar-20 07:33N 35°30' E 139°45'0 0.0
2017-Mar-20 06:33N 35°30' E 139°45'0 0.0
2017-Mar-20 05:32N 35°30' E 139°45'0 0.0
2017-Mar-20 04:32N 35°30' E 139°45'0 0.0
2017-Mar-20 03:29N 35°30' E 139°45'0 0.0
2017-Mar-20 02:32N 35°30' E 139°45'  

Dump ship's entire track history